createdAt,value
2022-10-27T00:01:10.786Z,23.30
2022-10-27T00:03:37.504Z,23.30
2022-10-27T00:06:06.362Z,23.20
2022-10-27T00:08:33.575Z,23.30
2022-10-27T00:11:02.469Z,23.30
2022-10-27T00:13:30.000Z,23.30
2022-10-27T00:16:06.939Z,23.30
2022-10-27T00:18:33.688Z,23.30
2022-10-27T00:21:06.317Z,23.30
2022-10-27T00:23:33.448Z,23.30
2022-10-27T00:26:00.584Z,23.30
2022-10-27T00:28:28.321Z,23.20
2022-10-27T00:30:59.326Z,23.20
2022-10-27T00:33:26.106Z,23.20
2022-10-27T00:35:52.767Z,23.20
2022-10-27T00:38:19.505Z,23.20
2022-10-27T00:40:46.150Z,23.20
2022-10-27T00:43:26.309Z,23.20
2022-10-27T00:45:54.078Z,23.20
2022-10-27T00:48:21.883Z,23.20
2022-10-27T00:50:48.669Z,23.20
2022-10-27T00:53:15.648Z,23.20
2022-10-27T00:55:42.774Z,23.20
2022-10-27T00:58:19.210Z,23.20
2022-10-27T01:00:46.058Z,23.20
2022-10-27T01:03:16.198Z,23.20
2022-10-27T01:05:44.542Z,23.20
2022-10-27T01:08:12.552Z,23.20
2022-10-27T01:10:39.437Z,23.20
2022-10-27T01:13:06.501Z,23.20
2022-10-27T01:15:54.913Z,23.20
2022-10-27T01:18:55.649Z,23.20
2022-10-27T01:21:43.892Z,23.20
2022-10-27T01:24:43.012Z,23.10
2022-10-27T01:27:39.071Z,23.20
2022-10-27T01:30:20.637Z,23.10
2022-10-27T01:33:06.123Z,23.10
2022-10-27T01:35:37.108Z,23.10
2022-10-27T01:38:23.273Z,23.10
2022-10-27T01:41:30.653Z,23.10
2022-10-27T01:44:02.466Z,23.10
2022-10-27T01:46:29.369Z,23.10
2022-10-27T01:48:56.813Z,23.10
2022-10-27T01:53:56.601Z,23.10
2022-10-27T01:56:38.224Z,23.10
2022-10-27T01:59:43.176Z,23.10
2022-10-27T02:02:24.149Z,23.10
2022-10-27T02:04:56.762Z,23.10
2022-10-27T02:07:33.237Z,23.10
2022-10-27T02:10:10.316Z,23.00
2022-10-27T02:12:39.658Z,23.10
2022-10-27T02:15:16.486Z,23.00
2022-10-27T02:17:45.311Z,23.10
2022-10-27T02:20:20.536Z,23.00
2022-10-27T02:22:51.453Z,23.00
2022-10-27T02:25:22.294Z,23.00
2022-10-27T02:27:52.956Z,23.00
2022-10-27T02:30:19.632Z,23.00
2022-10-27T02:32:47.931Z,23.00
2022-10-27T02:35:17.053Z,23.00
2022-10-27T02:37:45.804Z,23.00
2022-10-27T02:40:12.606Z,23.00
2022-10-27T02:42:39.321Z,23.00
2022-10-27T02:45:06.516Z,23.00
2022-10-27T02:47:33.208Z,23.00
2022-10-27T02:49:59.878Z,23.00
2022-10-27T02:52:26.564Z,23.00
2022-10-27T02:54:53.214Z,23.00
2022-10-27T02:57:20.415Z,23.00
2022-10-27T02:59:49.699Z,23.00
2022-10-27T03:02:19.860Z,23.00
2022-10-27T03:04:46.816Z,23.00
2022-10-27T03:07:13.502Z,23.00
2022-10-27T03:09:40.153Z,23.00
2022-10-27T03:12:06.958Z,22.90
2022-10-27T03:14:33.620Z,23.00
2022-10-27T03:17:00.332Z,23.00
2022-10-27T03:19:26.992Z,23.00
2022-10-27T03:21:53.642Z,23.00
2022-10-27T03:24:20.399Z,23.00
2022-10-27T03:26:47.228Z,23.00
2022-10-27T03:29:13.925Z,23.00
2022-10-27T03:31:40.662Z,23.00
2022-10-27T03:34:07.394Z,23.00
2022-10-27T03:36:34.321Z,23.00
2022-10-27T03:39:01.048Z,23.00
2022-10-27T03:41:27.752Z,23.00
2022-10-27T03:43:54.497Z,22.90
2022-10-27T03:46:21.173Z,23.00
2022-10-27T03:49:44.188Z,22.90
2022-10-27T03:52:11.143Z,23.00
2022-10-27T03:54:37.802Z,22.90
2022-10-27T03:57:04.632Z,22.90
2022-10-27T03:59:31.306Z,23.00
2022-10-27T04:02:00.006Z,22.90
2022-10-27T04:04:28.845Z,22.90
2022-10-27T04:06:55.536Z,23.00
2022-10-27T04:09:22.202Z,23.00
2022-10-27T04:11:48.929Z,23.00
2022-10-27T04:14:15.765Z,23.00
2022-10-27T04:16:42.465Z,23.00
2022-10-27T04:19:10.982Z,23.00
2022-10-27T04:21:37.653Z,23.00
2022-10-27T04:24:04.736Z,23.00
2022-10-27T04:26:31.402Z,23.00
2022-10-27T04:28:58.113Z,23.00
2022-10-27T04:31:24.768Z,23.00
2022-10-27T04:33:51.446Z,23.00
2022-10-27T04:36:18.279Z,23.00
2022-10-27T04:38:49.712Z,23.00
2022-10-27T04:41:16.744Z,23.00
2022-10-27T04:43:43.494Z,23.00
2022-10-27T04:46:10.202Z,23.00
2022-10-27T04:48:36.988Z,23.10
2022-10-27T04:51:03.732Z,23.00
2022-10-27T04:53:30.398Z,23.00
2022-10-27T04:55:57.622Z,23.10
2022-10-27T04:58:24.410Z,23.10
2022-10-27T05:00:51.152Z,23.10
2022-10-27T05:03:17.875Z,23.10
2022-10-27T05:05:44.529Z,23.10
2022-10-27T05:08:12.127Z,23.10
2022-10-27T05:10:38.790Z,23.10
2022-10-27T05:13:05.488Z,23.10
2022-10-27T05:15:32.520Z,23.10
2022-10-27T05:17:59.230Z,23.10
2022-10-27T05:20:26.539Z,23.10
2022-10-27T05:22:53.312Z,23.10
2022-10-27T05:25:19.992Z,23.10
2022-10-27T05:27:46.803Z,23.10
2022-10-27T05:30:14.808Z,23.10
2022-10-27T05:32:44.891Z,23.20
2022-10-27T05:35:13.182Z,23.20
2022-10-27T05:37:44.564Z,23.20
2022-10-27T05:40:11.788Z,23.20
2022-10-27T05:42:38.512Z,23.20
2022-10-27T05:45:05.491Z,23.20
2022-10-27T05:47:32.149Z,23.20
2022-10-27T05:49:58.873Z,23.20
2022-10-27T05:52:25.534Z,23.20
2022-10-27T05:54:52.189Z,22.90
2022-10-27T05:57:19.013Z,22.60
2022-10-27T05:59:45.730Z,22.40
2022-10-27T06:02:12.566Z,22.30
2022-10-27T06:04:40.078Z,22.20
2022-10-27T06:07:07.109Z,22.10
2022-10-27T06:09:33.900Z,22.00
2022-10-27T06:16:19.522Z,21.60
2022-10-27T06:18:46.299Z,21.50
2022-10-27T06:21:13.133Z,21.50
2022-10-27T06:23:41.398Z,21.50
2022-10-27T06:26:11.321Z,21.50
2022-10-27T06:28:38.000Z,21.50
2022-10-27T06:31:04.827Z,21.40
2022-10-27T06:33:31.516Z,21.20
2022-10-27T06:35:58.263Z,20.90
2022-10-27T06:38:24.947Z,20.80
2022-10-27T06:40:51.611Z,20.60
2022-10-27T06:43:18.292Z,20.40
2022-10-27T06:45:48.985Z,20.30
2022-10-27T06:48:15.822Z,20.20
2022-10-27T06:50:42.663Z,20.20
2022-10-27T06:53:09.436Z,20.10
2022-10-27T06:55:36.259Z,20.10
2022-10-27T06:58:03.313Z,20.10
2022-10-27T07:00:30.593Z,20.10
2022-10-27T07:02:57.434Z,20.10
2022-10-27T07:05:24.213Z,20.00
2022-10-27T07:07:52.761Z,19.90
2022-10-27T07:10:20.608Z,19.90
2022-10-27T07:12:58.426Z,19.90
2022-10-27T07:15:27.525Z,19.80
2022-10-27T07:18:02.782Z,19.70
2022-10-27T07:20:30.599Z,19.70
2022-10-27T07:22:58.383Z,19.80
2022-10-27T07:25:25.901Z,19.80
2022-10-27T07:27:54.673Z,19.80
2022-10-27T07:30:24.009Z,19.80
2022-10-27T07:32:50.808Z,19.80
2022-10-27T07:35:17.607Z,19.80
2022-10-27T07:37:45.685Z,19.80
2022-10-27T07:40:14.394Z,19.80
2022-10-27T07:42:45.490Z,19.90
2022-10-27T07:45:13.619Z,19.90
2022-10-27T07:47:45.041Z,19.90
2022-10-27T07:50:12.424Z,19.90
2022-10-27T07:52:44.045Z,20.00
2022-10-27T07:55:15.227Z,20.10
2022-10-27T07:57:43.218Z,20.20
2022-10-27T08:00:12.670Z,20.30
2022-10-27T08:02:39.634Z,20.40
2022-10-27T08:05:06.757Z,20.50
2022-10-27T08:07:33.837Z,20.60
2022-10-27T08:10:00.533Z,20.70
2022-10-27T08:12:27.473Z,20.70
2022-10-27T08:14:55.848Z,20.80
2022-10-27T08:17:23.088Z,20.70
2022-10-27T08:19:49.741Z,20.70
2022-10-27T08:22:16.508Z,20.70
2022-10-27T08:24:43.543Z,20.70
2022-10-27T08:27:10.257Z,20.70
2022-10-27T08:29:37.003Z,20.70
2022-10-27T08:32:03.975Z,20.70
2022-10-27T08:34:30.643Z,20.70
2022-10-27T08:36:57.332Z,20.70
2022-10-27T08:39:24.022Z,20.70
2022-10-27T08:42:07.747Z,20.70
2022-10-27T08:44:40.274Z,20.70
2022-10-27T08:47:13.447Z,20.70
2022-10-27T08:49:48.716Z,20.80
2022-10-27T08:52:27.365Z,20.80
2022-10-27T08:55:18.248Z,20.80
2022-10-27T08:57:51.402Z,20.80
2022-10-27T09:00:18.335Z,20.80
2022-10-27T09:03:00.352Z,20.90
2022-10-27T09:06:17.582Z,21.00
2022-10-27T09:08:56.754Z,20.90
2022-10-27T09:11:41.559Z,21.00
2022-10-27T09:14:29.408Z,21.00
2022-10-27T09:17:13.101Z,21.00
2022-10-27T09:19:48.409Z,21.00
2022-10-27T09:22:20.020Z,21.00
2022-10-27T09:25:02.475Z,21.00
2022-10-27T09:27:29.402Z,21.00
2022-10-27T09:30:03.557Z,21.00
2022-10-27T09:32:33.389Z,21.00
2022-10-27T09:35:04.232Z,21.10
2022-10-27T09:37:40.637Z,21.00
2022-10-27T09:40:18.201Z,21.10
2022-10-27T09:42:46.633Z,21.00
2022-10-27T09:45:16.529Z,21.10
2022-10-27T09:47:46.778Z,21.10
2022-10-27T09:50:24.169Z,21.10
2022-10-27T09:52:52.151Z,21.10
2022-10-27T09:55:19.876Z,21.10
2022-10-27T09:57:48.467Z,21.10
2022-10-27T10:00:21.572Z,21.10
2022-10-27T10:05:35.700Z,21.20
2022-10-27T10:08:13.489Z,21.20
2022-10-27T10:10:52.596Z,21.20
2022-10-27T10:13:21.179Z,21.30
2022-10-27T10:15:48.717Z,21.30
2022-10-27T10:18:27.630Z,21.30
2022-10-27T10:21:03.101Z,21.30
2022-10-27T10:23:36.080Z,21.30
2022-10-27T10:26:14.460Z,21.30
2022-10-27T10:28:43.362Z,21.30
2022-10-27T10:31:16.257Z,21.40
2022-10-27T10:33:47.000Z,21.40
2022-10-27T10:36:30.309Z,21.40
2022-10-27T10:39:00.087Z,21.50
2022-10-27T10:41:28.249Z,21.50
2022-10-27T10:44:14.739Z,21.50
2022-10-27T10:46:52.620Z,21.50
2022-10-27T10:49:29.321Z,21.60
2022-10-27T10:52:02.160Z,21.60
2022-10-27T10:54:36.046Z,21.70
2022-10-27T10:57:03.707Z,21.60
2022-10-27T10:59:34.163Z,21.70
2022-10-27T11:02:16.481Z,21.70
2022-10-27T11:04:47.371Z,21.70
2022-10-27T11:07:33.438Z,21.70
2022-10-27T11:10:12.109Z,21.70
2022-10-27T11:12:44.806Z,21.70
2022-10-27T11:15:20.635Z,21.80
2022-10-27T11:17:51.165Z,21.80
2022-10-27T11:20:25.583Z,21.80
2022-10-27T11:22:53.376Z,21.80
2022-10-27T11:25:33.020Z,21.80
2022-10-27T11:28:05.791Z,21.80
2022-10-27T11:30:36.541Z,21.80
2022-10-27T11:33:12.581Z,21.80
2022-10-27T11:36:17.287Z,21.80
2022-10-27T11:38:57.028Z,21.80
2022-10-27T11:41:49.557Z,21.80
2022-10-27T11:44:43.585Z,21.80
2022-10-27T11:47:26.612Z,21.80
2022-10-27T11:50:10.203Z,21.80
2022-10-27T11:52:39.760Z,21.80
2022-10-27T11:55:10.066Z,21.80
2022-10-27T11:57:53.353Z,21.80
2022-10-27T12:00:29.046Z,21.80
2022-10-27T12:03:25.981Z,21.80
2022-10-27T12:06:20.270Z,21.80
2022-10-27T12:08:58.913Z,21.80
2022-10-27T12:12:01.792Z,21.80
2022-10-27T12:14:28.443Z,21.80
2022-10-27T12:17:03.751Z,21.80
2022-10-27T12:19:36.026Z,21.80
2022-10-27T12:22:27.955Z,21.80
2022-10-27T12:25:11.247Z,21.80
2022-10-27T12:27:41.599Z,21.70
2022-10-27T12:30:18.558Z,21.70
2022-10-27T12:33:03.323Z,21.70
2022-10-27T12:35:53.961Z,21.70
2022-10-27T12:38:47.068Z,21.70
2022-10-27T12:41:32.291Z,21.70
2022-10-27T12:44:04.825Z,21.70
2022-10-27T12:46:55.955Z,21.70
2022-10-27T12:49:22.628Z,21.70
2022-10-27T12:51:55.400Z,21.70
2022-10-27T12:54:50.928Z,21.70
2022-10-27T12:57:26.450Z,21.70
2022-10-27T13:00:18.022Z,21.70
2022-10-27T13:02:59.236Z,21.70
2022-10-27T13:06:02.170Z,21.70
2022-10-27T13:08:43.260Z,21.70
2022-10-27T13:11:37.664Z,21.70
2022-10-27T13:14:23.293Z,21.70
2022-10-27T13:17:14.538Z,21.70
2022-10-27T13:19:53.595Z,21.70
2022-10-27T13:22:37.423Z,21.70
2022-10-27T13:25:25.071Z,21.60
2022-10-27T13:28:08.223Z,21.60
2022-10-27T13:30:38.428Z,21.60
2022-10-27T13:33:25.066Z,21.60
2022-10-27T13:36:19.909Z,21.50
2022-10-27T13:38:47.151Z,21.60
2022-10-27T13:41:52.436Z,21.50
2022-10-27T13:44:28.200Z,21.50
2022-10-27T13:47:03.620Z,21.50
2022-10-27T13:49:42.287Z,21.50
2022-10-27T13:52:17.563Z,21.50
2022-10-27T13:54:56.092Z,21.40
2022-10-27T13:58:00.585Z,21.40
2022-10-27T14:00:59.478Z,21.40
2022-10-27T14:06:10.044Z,21.40
2022-10-27T14:08:49.664Z,21.30
2022-10-27T14:11:29.129Z,21.30
2022-10-27T14:14:05.365Z,21.30
2022-10-27T14:16:34.791Z,21.30
2022-10-27T14:19:05.437Z,21.30
2022-10-27T14:21:39.658Z,21.30
2022-10-27T14:24:15.309Z,21.30
2022-10-27T14:26:42.066Z,21.20
2022-10-27T14:29:23.040Z,21.20
2022-10-27T14:31:50.562Z,21.20
2022-10-27T14:34:26.794Z,21.20
2022-10-27T14:36:55.380Z,21.20
2022-10-27T14:39:25.183Z,21.20
2022-10-27T14:41:54.256Z,21.20
2022-10-27T14:44:28.304Z,21.30
2022-10-27T14:47:20.255Z,21.30
2022-10-27T14:49:57.104Z,21.40
2022-10-27T14:52:30.667Z,21.40
2022-10-27T14:54:57.497Z,21.50
2022-10-27T14:57:33.454Z,21.50
2022-10-27T15:00:01.901Z,21.60
2022-10-27T15:02:29.648Z,21.60
2022-10-27T15:05:12.176Z,21.70
2022-10-27T15:07:39.123Z,21.70
2022-10-27T15:10:06.411Z,21.70
2022-10-27T15:12:33.178Z,21.70
2022-10-27T15:15:03.711Z,21.70
2022-10-27T15:17:36.271Z,21.70
2022-10-27T15:20:10.753Z,21.60
2022-10-27T15:22:38.176Z,21.60
2022-10-27T15:25:10.208Z,21.50
2022-10-27T15:27:38.271Z,21.50
2022-10-27T15:30:06.830Z,21.50
2022-10-27T15:32:41.349Z,21.40
2022-10-27T15:35:27.062Z,21.40
2022-10-27T15:37:54.554Z,21.30
2022-10-27T15:40:45.258Z,21.30
2022-10-27T15:43:24.524Z,21.30
2022-10-27T15:45:52.278Z,21.30
2022-10-27T15:48:24.769Z,21.30
2022-10-27T15:51:10.373Z,21.30
2022-10-27T15:53:55.230Z,21.20
2022-10-27T15:56:35.780Z,21.20
2022-10-27T15:59:22.312Z,21.20
2022-10-27T16:01:51.776Z,21.20
2022-10-27T16:04:29.134Z,21.10
2022-10-27T16:07:14.521Z,21.10
2022-10-27T16:09:43.367Z,21.10
2022-10-27T16:12:39.585Z,21.10
2022-10-27T16:15:16.308Z,21.10
2022-10-27T16:17:47.392Z,21.10
2022-10-27T16:20:20.554Z,21.00
2022-10-27T16:22:48.503Z,21.00
2022-10-27T16:25:17.610Z,21.00
2022-10-27T16:27:44.636Z,21.00
2022-10-27T16:30:17.234Z,21.00
2022-10-27T16:32:45.175Z,20.90
2022-10-27T16:35:17.446Z,20.90
2022-10-27T16:37:44.445Z,20.90
2022-10-27T16:40:15.727Z,20.90
2022-10-27T16:42:52.862Z,20.80
2022-10-27T16:45:20.800Z,20.80
2022-10-27T16:47:49.828Z,20.80
2022-10-27T16:50:17.932Z,20.70
2022-10-27T16:52:44.940Z,20.70
2022-10-27T16:55:12.482Z,20.70
2022-10-27T16:57:41.049Z,20.70
2022-10-27T17:00:12.446Z,20.60
2022-10-27T17:02:39.199Z,20.70
2022-10-27T17:05:09.589Z,20.70
2022-10-27T17:07:36.603Z,20.70
2022-10-27T17:10:04.753Z,20.70
2022-10-27T17:12:31.491Z,20.80
2022-10-27T17:14:58.197Z,20.80
2022-10-27T17:17:24.856Z,20.90
2022-10-27T17:19:51.591Z,20.90
2022-10-27T17:22:18.279Z,21.00
2022-10-27T17:24:45.014Z,21.00
2022-10-27T17:27:11.759Z,21.10
2022-10-27T17:29:38.582Z,21.00
2022-10-27T17:32:05.361Z,21.10
2022-10-27T17:34:32.219Z,21.10
2022-10-27T17:36:59.477Z,21.10
2022-10-27T17:39:26.171Z,21.10
2022-10-27T17:41:52.854Z,21.10
2022-10-27T17:44:19.556Z,21.20
2022-10-27T17:46:46.229Z,21.20
2022-10-27T17:49:12.994Z,21.20
2022-10-27T17:51:40.870Z,21.20
2022-10-27T17:54:09.356Z,21.20
2022-10-27T17:56:37.172Z,21.20
2022-10-27T18:02:50.344Z,21.20
2022-10-27T18:05:17.371Z,21.30
2022-10-27T18:07:44.042Z,21.30
2022-10-27T18:10:10.712Z,21.30
2022-10-27T18:12:37.420Z,21.20
2022-10-27T18:15:24.076Z,21.30
2022-10-27T18:17:51.132Z,21.30
2022-10-27T18:20:17.857Z,21.30
2022-10-27T18:22:44.595Z,21.30
2022-10-27T18:25:11.269Z,21.30
2022-10-27T18:27:37.962Z,21.30
2022-10-27T18:30:05.375Z,21.20
2022-10-27T18:32:32.053Z,21.30
2022-10-27T18:34:58.700Z,21.20
2022-10-27T18:37:25.358Z,21.20
2022-10-27T18:39:52.056Z,21.20
2022-10-27T18:42:18.727Z,21.20
2022-10-27T18:44:45.465Z,21.20
2022-10-27T18:47:12.112Z,21.20
2022-10-27T18:49:48.719Z,21.20
2022-10-27T18:52:15.631Z,21.20
2022-10-27T18:54:42.348Z,21.20
2022-10-27T18:57:09.156Z,21.20
2022-10-27T18:59:36.369Z,21.10
2022-10-27T19:02:03.439Z,21.10
2022-10-27T19:04:30.230Z,21.10
2022-10-27T19:06:56.959Z,21.10
2022-10-27T19:09:23.633Z,21.10
2022-10-27T19:11:50.321Z,21.00
2022-10-27T19:14:17.070Z,21.00
2022-10-27T19:16:43.762Z,21.00
2022-10-27T19:19:10.520Z,21.00
2022-10-27T19:21:37.215Z,20.90
2022-10-27T19:24:04.248Z,20.90
2022-10-27T19:26:33.837Z,20.90
2022-10-27T19:29:00.620Z,20.90
2022-10-27T19:31:30.972Z,21.00
2022-10-27T19:33:58.477Z,20.90
2022-10-27T19:36:28.655Z,21.00
2022-10-27T19:38:56.716Z,21.00
2022-10-27T19:41:26.372Z,21.00
2022-10-27T19:43:56.160Z,21.00
2022-10-27T19:46:24.575Z,21.00
2022-10-27T19:48:56.681Z,21.00
2022-10-27T19:51:25.982Z,21.00
2022-10-27T19:53:56.326Z,21.00
2022-10-27T19:56:25.039Z,21.00
2022-10-27T19:58:58.246Z,21.10
2022-10-27T20:01:28.982Z,21.10
2022-10-27T20:03:56.106Z,21.10
2022-10-27T20:06:24.027Z,21.00
2022-10-27T20:08:55.910Z,21.00
2022-10-27T20:11:25.074Z,21.00
2022-10-27T20:13:54.883Z,21.00
2022-10-27T20:16:24.851Z,21.00
2022-10-27T20:18:51.903Z,21.00
2022-10-27T20:21:19.699Z,20.90
2022-10-27T20:23:46.714Z,21.00
2022-10-27T20:26:30.742Z,21.00
2022-10-27T20:29:01.261Z,21.10
2022-10-27T20:31:28.375Z,21.20
2022-10-27T20:33:55.566Z,21.30
2022-10-27T20:36:22.563Z,21.40
2022-10-27T20:38:49.594Z,21.50
2022-10-27T20:41:22.797Z,21.50
2022-10-27T20:43:56.513Z,21.60
2022-10-27T20:46:24.877Z,21.60
2022-10-27T20:48:52.968Z,21.70
2022-10-27T20:51:21.524Z,21.80
2022-10-27T20:53:50.584Z,21.80
2022-10-27T20:56:26.131Z,21.80
2022-10-27T20:58:53.384Z,21.90
2022-10-27T21:01:28.881Z,21.90
2022-10-27T21:03:56.788Z,21.90
2022-10-27T21:06:24.292Z,22.00
2022-10-27T21:08:55.497Z,22.00
2022-10-27T21:11:22.982Z,22.00
2022-10-27T21:13:50.993Z,22.00
2022-10-27T21:16:17.677Z,22.00
2022-10-27T21:18:44.639Z,22.00
2022-10-27T21:21:13.247Z,22.10
2022-10-27T21:23:41.155Z,22.10
2022-10-27T21:26:09.335Z,22.10
2022-10-27T21:28:36.684Z,22.10
2022-10-27T21:31:07.921Z,22.10
2022-10-27T21:33:35.848Z,22.10
2022-10-27T21:36:04.507Z,22.10
2022-10-27T21:38:39.508Z,22.10
2022-10-27T21:41:07.230Z,22.20
2022-10-27T21:43:45.902Z,22.20
2022-10-27T21:46:14.826Z,22.20
2022-10-27T21:48:42.046Z,22.20
2022-10-27T21:51:12.263Z,22.20
2022-10-27T21:53:38.968Z,22.20
2022-10-27T21:56:08.507Z,22.20
2022-10-27T21:58:36.382Z,22.20
2022-10-27T22:01:09.356Z,22.20
2022-10-27T22:03:36.675Z,22.20
2022-10-27T22:06:04.806Z,22.20
2022-10-27T22:08:32.088Z,22.20
2022-10-27T22:11:15.774Z,22.20
2022-10-27T22:13:42.643Z,22.20
2022-10-27T22:16:11.356Z,22.20
2022-10-27T22:18:38.997Z,22.20
2022-10-27T22:21:07.264Z,22.20
2022-10-27T22:23:35.250Z,22.20
2022-10-27T22:26:13.258Z,22.20
2022-10-27T22:28:41.133Z,22.20
2022-10-27T22:31:15.225Z,22.20
2022-10-27T22:33:45.681Z,22.20
2022-10-27T22:36:14.305Z,22.20
2022-10-27T22:38:41.330Z,22.20
2022-10-27T22:41:10.472Z,22.20
2022-10-27T22:43:37.337Z,22.20
2022-10-27T22:46:05.146Z,22.30
2022-10-27T22:48:33.322Z,22.30
2022-10-27T22:51:05.994Z,22.20
2022-10-27T22:53:34.511Z,22.20
2022-10-27T22:56:06.714Z,22.20
2022-10-27T22:58:33.838Z,22.20
2022-10-27T23:01:07.805Z,22.30
2022-10-27T23:03:35.571Z,22.30
2022-10-27T23:06:02.622Z,22.20
2022-10-27T23:08:29.565Z,22.20
2022-10-27T23:10:57.678Z,22.20
2022-10-27T23:13:26.324Z,22.20
2022-10-27T23:15:57.696Z,22.20
2022-10-27T23:18:25.625Z,22.30
2022-10-27T23:20:57.128Z,22.30
2022-10-27T23:23:24.379Z,22.30
2022-10-27T23:25:51.722Z,22.30
2022-10-27T23:28:19.089Z,22.30
2022-10-27T23:30:46.256Z,22.30
2022-10-27T23:33:15.105Z,22.30
2022-10-27T23:35:42.395Z,22.30
2022-10-27T23:38:09.263Z,22.30
2022-10-27T23:40:35.921Z,22.30
2022-10-27T23:43:02.572Z,22.30
2022-10-27T23:45:29.251Z,22.30
2022-10-27T23:47:55.929Z,22.30
2022-10-27T23:50:22.673Z,22.30
2022-10-27T23:52:49.337Z,22.30
2022-10-27T23:55:16.047Z,22.30
2022-10-27T23:57:42.704Z,22.30
